CheckWX is a tool to help pilots better visualize weather data.  It is not intended as a substitute for an official pre-flight weather briefing.

12:55:25 UTC

KSDA METAR
Shenandoah Municipal Airport
Shenandoah, Iowa, USA
Current

20 mins ago

KSDA 181235Z AUTO 33006G12KT 10SM OVC012 M10/M11 A3036 RMK AO2
Observed
Feb-18 @ 12:35 UTC
Wind
  • 330° at 6 KTS
  • Gusting to 12 KTS
Visibility
10 SM
Flight Rules
MVFR
Cloud Levels
  • Overcast at 1,200' AGL
Temperature
-10°C / 14°F
Dewpoint
-11°C / 12°F
Humidity
92%
Altimeter
30.36" Hg
Pressure
1028.12 hPa
Previous

40 mins ago

KSDA 181215Z AUTO 32006KT 10SM OVC013 M09/M11 A3036 RMK AO2
Observed
Feb-18 @ 12:15 UTC
Wind
  • 320° at 6 KTS
Visibility
10 SM
Flight Rules
MVFR
Cloud Levels
  • Overcast at 1,300' AGL
Temperature
-9°C / 16°F
Dewpoint
-11°C / 12°F
Humidity
86%
Altimeter
30.36" Hg
Pressure
1028.12 hPa
Previous

60 mins ago

KSDA 181155Z AUTO 31006KT 10SM OVC015 M09/M11 A3035 RMK AO2
Observed
Feb-18 @ 11:55 UTC
Wind
  • 310° at 6 KTS
Visibility
10 SM
Flight Rules
MVFR
Cloud Levels
  • Overcast at 1,500' AGL
Temperature
-9°C / 16°F
Dewpoint
-11°C / 12°F
Humidity
86%
Altimeter
30.35" Hg
Pressure
1027.82 hPa